createdAt,value
2019-04-27T00:02:13.453Z,57.40
2019-04-27T00:04:52.866Z,52.78
2019-04-27T00:07:24.168Z,51.15
2019-04-27T00:10:00.032Z,61.15
2019-04-27T00:12:28.308Z,60.35
2019-04-27T00:14:57.169Z,60.92
2019-04-27T00:17:44.911Z,58.35
2019-04-27T00:20:10.449Z,59.33
2019-04-27T00:22:40.392Z,57.23
2019-04-27T00:25:08.732Z,59.33
2019-04-27T00:27:36.999Z,57.88
2019-04-27T00:30:05.267Z,62.73
2019-04-27T00:32:34.780Z,57.83
2019-04-27T00:35:03.701Z,63.30
2019-04-27T00:37:34.076Z,58.10
2019-04-27T00:40:04.021Z,57.15
2019-04-27T00:42:33.366Z,59.73
2019-04-27T00:45:03.026Z,62.98
2019-04-27T00:47:32.762Z,57.75
2019-04-27T00:50:03.593Z,58.83
2019-04-27T00:52:34.892Z,57.43
2019-04-27T00:55:04.675Z,56.88
2019-04-27T00:57:38.167Z,56.02
2019-04-27T01:00:17.016Z,57.55
2019-04-27T01:02:49.563Z,57.88
2019-04-27T01:05:19.480Z,54.75
2019-04-27T01:07:47.743Z,58.42
2019-04-27T01:10:16.184Z,57.38
2019-04-27T01:12:44.458Z,60.38
2019-04-27T01:15:13.756Z,50.75
2019-04-27T01:17:42.330Z,55.73
2019-04-27T01:20:10.596Z,57.23
2019-04-27T01:22:39.245Z,55.33
2019-04-27T01:25:08.786Z,51.60
2019-04-27T01:27:39.409Z,52.33
2019-04-27T01:30:09.716Z,58.50
2019-04-27T01:32:39.218Z,57.08
2019-04-27T01:35:08.614Z,59.05
2019-04-27T01:37:38.670Z,55.10
2019-04-27T01:40:07.154Z,59.63
2019-04-27T01:42:36.067Z,61.30
2019-04-27T01:45:06.538Z,57.98
2019-04-27T01:47:34.923Z,53.30
2019-04-27T01:50:04.556Z,57.43
2019-04-27T01:52:32.839Z,53.58
2019-04-27T01:55:01.107Z,53.15
2019-04-27T01:57:30.472Z,56.65
2019-04-27T01:59:59.012Z,48.30
2019-04-27T02:02:39.319Z,51.25
2019-04-27T02:05:25.838Z,47.78
2019-04-27T02:07:54.091Z,48.85
2019-04-27T02:10:22.375Z,49.90
2019-04-27T02:12:50.891Z,53.55
2019-04-27T02:15:19.287Z,46.85
2019-04-27T02:17:50.680Z,51.68
2019-04-27T02:20:17.563Z,55.48
2019-04-27T02:22:45.846Z,59.05
2019-04-27T02:25:14.120Z,50.83
2019-04-27T02:27:44.156Z,55.12
2019-04-27T02:30:15.764Z,60.58
2019-04-27T02:32:49.937Z,62.17
2019-04-27T02:35:19.301Z,56.88
2019-04-27T02:37:50.064Z,59.05
2019-04-27T02:40:42.145Z,61.30
2019-04-27T02:43:10.299Z,59.13
2019-04-27T02:45:40.331Z,56.98
2019-04-27T02:48:09.805Z,67.03
2019-04-27T02:50:39.970Z,61.55
2019-04-27T02:53:11.031Z,56.15
2019-04-27T02:55:39.701Z,57.50
2019-04-27T02:58:10.062Z,58.00
2019-04-27T03:00:39.993Z,64.67
2019-04-27T03:03:10.489Z,60.10
2019-04-27T03:05:39.913Z,57.30
2019-04-27T03:08:10.246Z,60.38
2019-04-27T03:10:40.069Z,59.13
2019-04-27T03:13:11.104Z,56.25
2019-04-27T03:15:57.397Z,59.03
2019-04-27T03:18:32.243Z,58.28
2019-04-27T03:21:04.651Z,59.67
2019-04-27T03:23:32.915Z,57.60
2019-04-27T03:26:05.940Z,58.90
2019-04-27T03:28:34.265Z,61.65
2019-04-27T03:31:03.620Z,66.55
2019-04-27T03:33:32.902Z,63.85
2019-04-27T03:36:02.992Z,63.13
2019-04-27T03:38:31.599Z,62.62
2019-04-27T03:41:00.595Z,70.50
2019-04-27T03:43:30.251Z,65.12
2019-04-27T03:46:00.448Z,67.05
2019-04-27T03:48:29.545Z,66.60
2019-04-27T03:51:16.026Z,68.28
2019-04-27T03:53:46.042Z,67.17
2019-04-27T03:56:25.110Z,68.12
2019-04-27T03:59:04.168Z,66.82
2019-04-27T04:01:33.580Z,63.87
2019-04-27T04:04:01.837Z,66.77
2019-04-27T04:06:30.195Z,67.15
2019-04-27T04:09:00.270Z,62.50
2019-04-27T04:11:39.650Z,60.48
2019-04-27T04:14:12.749Z,66.77
2019-04-27T04:16:42.672Z,70.10
2019-04-27T04:19:11.539Z,68.17
2019-04-27T04:21:40.301Z,65.72
2019-04-27T04:24:09.537Z,70.65
2019-04-27T04:26:40.275Z,71.67
2019-04-27T04:29:10.228Z,73.30
2019-04-27T04:31:40.379Z,70.20
2019-04-27T04:34:11.586Z,70.45
2019-04-27T04:36:39.386Z,73.47
2019-04-27T04:39:11.933Z,66.35
2019-04-27T04:41:52.932Z,65.62
2019-04-27T04:44:25.864Z,69.85
2019-04-27T04:49:39.769Z,63.25
2019-04-27T04:52:09.606Z,69.70
2019-04-27T04:54:40.699Z,57.80
2019-04-27T04:57:09.286Z,61.80
2019-04-27T04:59:39.072Z,66.75
2019-04-27T05:02:07.363Z,63.23
2019-04-27T05:04:35.595Z,63.68
2019-04-27T05:07:03.897Z,61.85
2019-04-27T05:09:32.199Z,60.50
2019-04-27T05:12:00.428Z,51.33
2019-04-27T05:14:28.993Z,61.30
2019-04-27T05:16:59.038Z,57.95
2019-04-27T05:19:28.801Z,62.17
2019-04-27T05:21:59.145Z,58.25
2019-04-27T05:24:29.105Z,54.48
2019-04-27T05:26:58.880Z,56.00
2019-04-27T05:29:29.132Z,55.73
2019-04-27T05:31:59.034Z,54.08
2019-04-27T05:34:29.268Z,56.65
2019-04-27T05:37:00.740Z,58.85
2019-04-27T05:39:29.778Z,47.53
2019-04-27T05:41:59.522Z,54.93
2019-04-27T05:44:49.475Z,55.67
2019-04-27T05:47:19.375Z,64.40
2019-04-27T05:49:48.561Z,45.40
2019-04-27T05:52:29.630Z,55.85
2019-04-27T05:54:58.999Z,56.08
2019-04-27T05:57:30.742Z,63.70
2019-04-27T06:00:01.113Z,49.95
2019-04-27T06:02:30.261Z,54.63
2019-04-27T06:05:00.098Z,55.65
2019-04-27T06:07:29.593Z,58.98
2019-04-27T06:09:59.839Z,54.95
2019-04-27T06:12:29.674Z,54.53
2019-04-27T06:14:59.961Z,58.75
2019-04-27T06:17:29.827Z,57.88
2019-04-27T06:19:59.443Z,58.55
2019-04-27T06:22:29.284Z,53.95
2019-04-27T06:24:59.758Z,50.35
2019-04-27T06:27:30.547Z,60.08
2019-04-27T06:29:59.349Z,56.30
2019-04-27T06:32:29.564Z,57.23
2019-04-27T06:34:59.059Z,54.08
2019-04-27T06:37:29.406Z,42.05
2019-04-27T06:39:59.794Z,51.37
2019-04-27T06:42:29.652Z,49.73
2019-04-27T06:44:59.977Z,44.27
2019-04-27T06:47:29.528Z,48.70
2019-04-27T06:49:58.726Z,48.10
2019-04-27T06:52:28.931Z,51.00
2019-04-27T06:54:57.219Z,47.90
2019-04-27T06:57:26.470Z,52.55
2019-04-27T06:59:54.915Z,50.58
2019-04-27T07:02:23.423Z,46.65
2019-04-27T07:04:51.677Z,47.15
2019-04-27T07:07:19.973Z,49.35
2019-04-27T07:09:49.347Z,48.20
2019-04-27T07:12:19.225Z,40.35
2019-04-27T07:14:52.909Z,45.52
2019-04-27T07:17:19.123Z,49.65
2019-04-27T07:19:49.445Z,43.85
2019-04-27T07:22:17.627Z,50.80
2019-04-27T07:24:45.880Z,38.00
2019-04-27T07:27:14.103Z,39.33
2019-04-27T07:29:44.640Z,46.90
2019-04-27T07:32:12.292Z,39.08
2019-04-27T07:34:40.803Z,37.20
2019-04-27T07:37:09.347Z,48.75
2019-04-27T07:39:39.189Z,49.73
2019-04-27T07:42:08.583Z,39.50
2019-04-27T07:44:39.070Z,41.15
2019-04-27T07:47:24.380Z,37.85
2019-04-27T07:49:52.799Z,34.63
2019-04-27T07:52:21.048Z,30.50
2019-04-27T07:54:49.460Z,23.07
2019-04-27T07:57:19.706Z,19.17
2019-04-27T07:59:50.195Z,21.77
2019-04-27T08:02:19.049Z,22.30
2019-04-27T08:04:50.293Z,24.02
2019-04-27T08:07:19.634Z,21.00
2019-04-27T08:09:49.692Z,21.20
2019-04-27T08:12:18.478Z,19.75
2019-04-27T08:14:49.117Z,20.32
2019-04-27T08:17:19.131Z,21.45
2019-04-27T08:19:49.378Z,19.23
2019-04-27T08:22:19.271Z,20.97
2019-04-27T08:24:49.518Z,19.92
2019-04-27T08:27:19.504Z,23.00
2019-04-27T08:29:52.337Z,18.48
2019-04-27T08:32:30.983Z,23.95
2019-04-27T08:35:01.518Z,16.87
2019-04-27T08:37:29.897Z,17.20
2019-04-27T08:39:59.274Z,15.28
2019-04-27T08:42:29.325Z,16.05
2019-04-27T08:44:59.439Z,15.40
2019-04-27T08:47:29.356Z,15.70
2019-04-27T08:49:59.113Z,14.07
2019-04-27T08:52:28.996Z,11.93
2019-04-27T08:54:59.283Z,11.60
2019-04-27T08:57:29.016Z,11.43
2019-04-27T08:59:59.478Z,16.05
2019-04-27T09:02:41.135Z,13.38
2019-04-27T09:04:57.356Z,11.57
2019-04-27T09:07:32.711Z,10.30
2019-04-27T09:10:05.487Z,10.78
2019-04-27T09:12:53.523Z,12.28
2019-04-27T09:15:23.134Z,11.85
2019-04-27T09:17:56.751Z,11.10
2019-04-27T09:20:39.072Z,10.50
2019-04-27T09:23:07.421Z,9.05
2019-04-27T09:25:35.856Z,10.00
2019-04-27T09:28:04.217Z,13.13
2019-04-27T09:30:33.091Z,7.45
2019-04-27T09:33:02.380Z,7.72
2019-04-27T09:35:30.655Z,6.50
2019-04-27T09:37:58.880Z,6.47
2019-04-27T09:40:28.343Z,4.95
2019-04-27T09:42:57.180Z,6.10
2019-04-27T09:45:27.094Z,8.93
2019-04-27T09:47:56.306Z,6.45
2019-04-27T09:50:27.949Z,5.80
2019-04-27T09:52:55.728Z,5.83
2019-04-27T09:55:26.149Z,6.65
2019-04-27T09:57:54.117Z,7.22
2019-04-27T10:00:22.343Z,6.10
2019-04-27T10:02:50.680Z,7.90
2019-04-27T10:05:18.964Z,11.75
2019-04-27T10:07:47.761Z,4.03
2019-04-27T10:10:16.126Z,3.02
2019-04-27T10:12:46.147Z,3.12
2019-04-27T10:15:16.260Z,3.80
2019-04-27T10:17:44.592Z,6.35
2019-04-27T10:20:12.956Z,4.83
2019-04-27T10:22:43.629Z,6.03
2019-04-27T10:25:12.757Z,3.58
2019-04-27T10:27:42.651Z,4.95
2019-04-27T10:30:10.874Z,4.40
2019-04-27T10:32:39.273Z,5.67
2019-04-27T10:35:07.856Z,5.55
2019-04-27T10:37:36.213Z,4.67
2019-04-27T10:40:06.137Z,4.55
2019-04-27T10:42:35.854Z,6.97
2019-04-27T10:45:06.435Z,3.08
2019-04-27T10:47:36.015Z,3.55
2019-04-27T10:50:05.986Z,5.65
2019-04-27T10:52:34.282Z,3.15
2019-04-27T10:55:02.528Z,2.15
2019-04-27T10:57:30.747Z,2.58
2019-04-27T10:59:59.049Z,1.60
2019-04-27T11:02:27.330Z,1.55
2019-04-27T11:05:12.005Z,1.80
2019-04-27T11:07:40.726Z,2.05
2019-04-27T11:10:09.793Z,2.35
2019-04-27T11:12:38.112Z,3.08
2019-04-27T11:15:09.900Z,3.30
2019-04-27T11:17:40.647Z,4.28
2019-04-27T11:20:09.250Z,1.70
2019-04-27T11:22:38.062Z,1.52
2019-04-27T11:25:07.691Z,3.00
2019-04-27T11:27:35.922Z,4.80
2019-04-27T11:30:06.800Z,3.25
2019-04-27T11:32:35.084Z,2.35
2019-04-27T11:35:20.186Z,2.25
2019-04-27T11:37:49.970Z,2.35
2019-04-27T11:40:18.842Z,2.30
2019-04-27T11:42:47.091Z,3.67
2019-04-27T11:45:15.430Z,2.12
2019-04-27T11:47:43.690Z,2.25
2019-04-27T11:50:12.873Z,1.70
2019-04-27T11:52:41.121Z,1.35
2019-04-27T11:55:10.183Z,1.32
2019-04-27T11:57:38.406Z,2.42
2019-04-27T12:00:09.068Z,3.52
2019-04-27T12:02:37.299Z,2.55
2019-04-27T12:05:07.966Z,2.35
2019-04-27T12:07:37.220Z,2.62
2019-04-27T12:10:06.007Z,3.33
2019-04-27T12:12:36.378Z,3.02
2019-04-27T12:15:06.731Z,2.65
2019-04-27T12:17:36.138Z,1.62
2019-04-27T12:20:07.670Z,3.02
2019-04-27T12:22:36.969Z,3.95
2019-04-27T12:25:06.472Z,2.35
2019-04-27T12:27:37.281Z,2.37
2019-04-27T12:30:23.511Z,3.60
2019-04-27T12:32:51.845Z,2.95
2019-04-27T12:35:20.421Z,1.30
2019-04-27T12:37:48.760Z,2.12
2019-04-27T12:40:17.068Z,1.90
2019-04-27T12:42:45.282Z,1.92
2019-04-27T12:45:13.764Z,1.55
2019-04-27T12:47:42.030Z,3.08
2019-04-27T12:50:10.428Z,1.45
2019-04-27T12:52:39.424Z,1.05
2019-04-27T12:55:25.915Z,3.20
2019-04-27T12:58:11.113Z,2.00
2019-04-27T13:00:56.340Z,1.95
2019-04-27T13:03:26.171Z,2.25
2019-04-27T13:05:54.576Z,2.72
2019-04-27T13:08:22.880Z,1.87
2019-04-27T13:10:51.187Z,2.08
2019-04-27T13:13:19.476Z,2.35
2019-04-27T13:15:47.698Z,2.80
2019-04-27T13:18:16.788Z,1.92
2019-04-27T13:20:45.046Z,2.95
2019-04-27T13:23:13.483Z,2.40
2019-04-27T13:25:41.708Z,1.10
2019-04-27T13:28:10.008Z,2.25
2019-04-27T13:30:38.310Z,1.12
2019-04-27T13:33:06.547Z,1.87
2019-04-27T13:35:34.780Z,3.70
2019-04-27T13:38:03.012Z,1.27
2019-04-27T13:40:33.467Z,4.60
2019-04-27T13:43:16.683Z,8.85
2019-04-27T13:45:59.044Z,11.03
2019-04-27T13:48:46.696Z,11.60
2019-04-27T13:51:16.907Z,8.00
2019-04-27T13:53:45.619Z,6.97
2019-04-27T13:56:17.490Z,6.70
2019-04-27T13:58:47.036Z,5.97
2019-04-27T14:01:15.304Z,6.53
2019-04-27T14:03:45.139Z,4.80
2019-04-27T14:06:13.523Z,5.33
2019-04-27T14:08:41.768Z,4.05
2019-04-27T14:11:09.992Z,3.92
2019-04-27T14:13:39.119Z,4.87
2019-04-27T14:16:08.697Z,3.70
2019-04-27T14:18:38.527Z,3.30
2019-04-27T14:21:06.867Z,3.25
2019-04-27T14:23:35.297Z,3.20
2019-04-27T14:26:03.507Z,3.50
2019-04-27T14:28:31.743Z,4.00
2019-04-27T14:31:00.146Z,6.37
2019-04-27T14:33:28.545Z,5.60
2019-04-27T14:35:56.760Z,5.42
2019-04-27T14:38:25.059Z,7.47
2019-04-27T14:40:53.296Z,7.08
2019-04-27T14:43:21.698Z,6.37
2019-04-27T14:45:50.149Z,5.42
2019-04-27T14:48:19.495Z,7.35
2019-04-27T14:50:48.545Z,6.92
2019-04-27T14:53:17.073Z,6.90
2019-04-27T14:55:45.856Z,7.28
2019-04-27T14:58:14.208Z,6.58
2019-04-27T15:00:43.225Z,6.30
2019-04-27T15:03:11.478Z,6.87
2019-04-27T15:05:40.695Z,5.75
2019-04-27T15:08:09.934Z,6.33
2019-04-27T15:10:39.343Z,6.10
2019-04-27T15:13:08.388Z,6.53
2019-04-27T15:15:37.460Z,7.12
2019-04-27T15:18:05.729Z,6.70
2019-04-27T15:23:26.659Z,6.33
2019-04-27T15:25:55.452Z,6.55
2019-04-27T15:28:25.393Z,6.67
2019-04-27T15:30:59.386Z,6.42
2019-04-27T15:33:46.688Z,7.25
2019-04-27T15:36:33.277Z,7.22
2019-04-27T15:39:03.395Z,6.25
2019-04-27T15:41:48.661Z,7.97
2019-04-27T15:44:18.758Z,7.95
2019-04-27T15:46:47.940Z,7.70
2019-04-27T15:49:17.879Z,7.53
2019-04-27T15:51:46.370Z,8.28
2019-04-27T15:54:14.591Z,6.75
2019-04-27T15:56:42.823Z,8.15
2019-04-27T15:59:11.099Z,8.13
2019-04-27T16:01:39.696Z,7.83
2019-04-27T16:04:11.248Z,7.00
2019-04-27T16:06:38.470Z,7.08
2019-04-27T16:09:11.358Z,6.95
2019-04-27T16:11:39.648Z,9.85
2019-04-27T16:14:07.911Z,6.17
2019-04-27T16:16:38.218Z,6.05
2019-04-27T16:19:09.002Z,6.20
2019-04-27T16:21:41.596Z,7.00
2019-04-27T16:24:06.351Z,7.83
2019-04-27T16:26:34.576Z,7.50
2019-04-27T16:29:03.614Z,7.83
2019-04-27T16:31:36.018Z,96.57
2019-04-27T16:34:03.279Z,139.77
2019-04-27T16:36:31.526Z,13.83
2019-04-27T16:39:03.629Z,12.78
2019-04-27T16:41:32.987Z,7.43
2019-04-27T16:44:02.396Z,7.12
2019-04-27T16:46:34.795Z,7.25
2019-04-27T16:49:01.695Z,8.23
2019-04-27T16:51:36.568Z,9.18
2019-04-27T16:54:00.361Z,8.23
2019-04-27T16:56:29.888Z,8.23
2019-04-27T16:59:11.500Z,8.53
2019-04-27T17:01:30.398Z,9.25
2019-04-27T17:03:59.501Z,9.25
2019-04-27T17:06:29.510Z,10.63
2019-04-27T17:09:05.473Z,10.25
2019-04-27T17:11:29.808Z,10.25
2019-04-27T17:14:05.763Z,10.32
2019-04-27T17:16:41.907Z,11.70
2019-04-27T17:19:28.643Z,11.50
2019-04-27T17:21:57.107Z,10.20
2019-04-27T17:24:33.362Z,7.33
2019-04-27T17:27:01.051Z,6.60
2019-04-27T17:29:29.285Z,3.25
2019-04-27T17:32:00.134Z,2.55
2019-04-27T17:34:28.659Z,3.20
2019-04-27T17:36:58.936Z,2.70
2019-04-27T17:39:28.298Z,3.00
2019-04-27T17:41:58.583Z,3.47
2019-04-27T17:44:28.672Z,3.70
2019-04-27T17:46:56.860Z,4.08
2019-04-27T17:49:25.095Z,6.83
2019-04-27T17:51:53.324Z,3.83
2019-04-27T17:54:24.651Z,5.55
2019-04-27T17:56:52.931Z,5.05
2019-04-27T17:59:22.352Z,5.70
2019-04-27T18:01:53.985Z,5.92
2019-04-27T18:04:21.091Z,6.08
2019-04-27T18:06:49.442Z,6.03
2019-04-27T18:09:19.031Z,6.53
2019-04-27T18:14:32.545Z,7.28
2019-04-27T18:16:58.398Z,6.50
2019-04-27T18:19:28.459Z,6.87
2019-04-27T18:22:02.113Z,7.10
2019-04-27T18:24:32.023Z,7.30
2019-04-27T18:27:19.015Z,8.73
2019-04-27T18:29:48.579Z,9.50
2019-04-27T18:32:16.951Z,9.88
2019-04-27T18:34:48.961Z,9.95
2019-04-27T18:37:20.904Z,10.55
2019-04-27T18:39:49.722Z,11.33
2019-04-27T18:42:15.373Z,10.38
2019-04-27T18:44:43.600Z,9.45
2019-04-27T18:47:11.810Z,9.10
2019-04-27T18:50:07.840Z,7.80
2019-04-27T18:52:47.183Z,6.90
2019-04-27T18:55:16.887Z,9.88
2019-04-27T18:57:41.363Z,7.78
2019-04-27T19:00:12.246Z,8.13
2019-04-27T19:02:40.491Z,8.40
2019-04-27T19:05:08.931Z,8.15
2019-04-27T19:07:38.175Z,6.90
2019-04-27T19:10:08.787Z,6.78
2019-04-27T19:12:36.692Z,6.92
2019-04-27T19:15:08.172Z,7.08
2019-04-27T19:17:38.494Z,6.97
2019-04-27T19:20:08.277Z,7.08
2019-04-27T19:22:38.637Z,7.10
2019-04-27T19:25:09.655Z,6.53
2019-04-27T19:27:42.672Z,6.25
2019-04-27T19:30:15.256Z,6.92
2019-04-27T19:32:43.479Z,6.12
2019-04-27T19:35:11.749Z,6.25
2019-04-27T19:37:39.972Z,5.47
2019-04-27T19:40:08.587Z,4.95
2019-04-27T19:42:38.649Z,5.28
2019-04-27T19:45:07.048Z,5.87
2019-04-27T19:47:35.301Z,4.50
2019-04-27T19:50:06.071Z,4.85
2019-04-27T19:52:34.264Z,4.85
2019-04-27T19:55:02.605Z,5.15
2019-04-27T19:57:37.955Z,5.50
2019-04-27T20:00:02.740Z,6.10
2019-04-27T20:02:31.142Z,6.35
2019-04-27T20:05:01.129Z,4.97
2019-04-27T20:07:29.923Z,5.85
2019-04-27T20:09:59.826Z,5.17
2019-04-27T20:12:28.045Z,6.22
2019-04-27T20:14:56.284Z,4.97
2019-04-27T20:17:28.459Z,4.83
2019-04-27T20:19:56.949Z,5.33
2019-04-27T20:22:25.871Z,3.98
2019-04-27T20:24:54.102Z,5.20
2019-04-27T20:27:22.340Z,3.72
2019-04-27T20:29:50.555Z,4.95
2019-04-27T20:32:18.801Z,4.50
2019-04-27T20:34:47.104Z,4.22
2019-04-27T20:37:15.370Z,4.85
2019-04-27T20:39:43.612Z,5.42
2019-04-27T20:42:12.597Z,4.95
2019-04-27T20:44:41.330Z,5.78
2019-04-27T20:47:10.264Z,7.12
2019-04-27T20:49:38.556Z,6.78
2019-04-27T20:52:11.577Z,5.83
2019-04-27T20:54:41.544Z,9.10
2019-04-27T20:57:11.515Z,6.47
2019-04-27T20:59:40.093Z,5.45
2019-04-27T21:02:27.694Z,6.72
2019-04-27T21:05:00.564Z,5.35
2019-04-27T21:07:39.676Z,6.30
2019-04-27T21:10:08.400Z,6.58
2019-04-27T21:12:36.631Z,5.20
2019-04-27T21:15:05.809Z,5.08
2019-04-27T21:17:34.044Z,7.12
2019-04-27T21:20:02.275Z,8.30
2019-04-27T21:22:31.466Z,8.13
2019-04-27T21:25:01.514Z,7.55
2019-04-27T21:27:31.809Z,8.40
2019-04-27T21:30:02.753Z,5.90
2019-04-27T21:32:32.125Z,9.15
2019-04-27T21:35:01.690Z,7.62
2019-04-27T21:37:30.753Z,5.70
2019-04-27T21:40:15.759Z,6.65
2019-04-27T21:42:44.012Z,5.10
2019-04-27T21:45:12.236Z,5.92
2019-04-27T21:47:41.372Z,5.85
2019-04-27T21:50:12.006Z,6.95
2019-04-27T21:52:58.620Z,5.40
2019-04-27T21:55:30.824Z,6.70
2019-04-27T21:57:58.840Z,6.27
2019-04-27T22:00:39.801Z,6.83
2019-04-27T22:03:11.365Z,7.33
2019-04-27T22:05:41.511Z,6.15
2019-04-27T22:08:11.759Z,5.95
2019-04-27T22:10:39.908Z,5.35
2019-04-27T22:13:08.234Z,7.00
2019-04-27T22:15:36.461Z,5.12
2019-04-27T22:18:04.691Z,6.95
2019-04-27T22:20:33.575Z,5.70
2019-04-27T22:23:06.263Z,4.90
2019-04-27T22:25:38.779Z,5.78
2019-04-27T22:28:07.074Z,7.08
2019-04-27T22:30:35.347Z,11.73
2019-04-27T22:33:03.588Z,6.37
2019-04-27T22:35:31.809Z,6.80
2019-04-27T22:38:01.800Z,9.55
2019-04-27T22:40:41.949Z,7.37
2019-04-27T22:43:12.019Z,7.85
2019-04-27T22:45:42.408Z,8.00
2019-04-27T22:48:11.305Z,7.97
2019-04-27T22:50:41.309Z,8.23
2019-04-27T22:53:09.715Z,8.78
2019-04-27T22:55:41.212Z,7.70
2019-04-27T22:58:14.235Z,7.65
2019-04-27T23:03:13.331Z,7.85
2019-04-27T23:05:43.003Z,8.08
2019-04-27T23:08:11.542Z,10.10
2019-04-27T23:10:39.774Z,11.63
2019-04-27T23:13:08.018Z,10.20
2019-04-27T23:15:37.922Z,9.70
2019-04-27T23:18:06.176Z,10.40
2019-04-27T23:20:34.400Z,11.60
2019-04-27T23:23:02.859Z,10.03
2019-04-27T23:25:31.396Z,12.98
2019-04-27T23:27:59.764Z,12.85
2019-04-27T23:30:31.220Z,10.70
2019-04-27T23:33:01.244Z,15.43
2019-04-27T23:35:32.779Z,15.88
2019-04-27T23:38:08.855Z,15.10
2019-04-27T23:40:31.726Z,12.05
2019-04-27T23:43:01.570Z,14.25
2019-04-27T23:45:31.688Z,12.53
2019-04-27T23:48:00.387Z,12.93
2019-04-27T23:50:31.382Z,14.70
2019-04-27T23:53:04.095Z,15.13
2019-04-27T23:55:33.983Z,16.95
2019-04-27T23:58:02.294Z,13.98
